Terminal Aerodrome Forecast
Issued by NWS

Home | Current Version | Previous Version | Text Only | Print | Product List | Glossary On
Versions: 1 2 3 4 5 6 7 8 9 10 11 12 13 14 15 16 17 18
000
FTUS43 KPAH 041121
TAFCGI
TAF
KCGI 041121Z 0412/0512 00000KT 5SM BR SCT005 BKN040
      TEMPO 0412/0413 2SM BR OVC004
     FM041400 VRB05KT P6SM BKN035
     FM041800 05005KT P6SM SCT040
     FM050600 00000KT 3SM BR SCT005
      TEMPO 0508/0512 1/2SM FG BKN002=

USA.gov is the U.S. government's official web portal to all federal, state and local government web resources and services.